Latest Coastal Weather Observations for Point Perpendicular

IDN60701

Issued at 12:35 am EST Thursday 17 April 2014 (issued every 10 minutes, with the page automatically refreshed every 10 minutes)

About coastal observations | Map of coastal stations | Coastal observations for NSW | Marine services | Other Formats
Station Details ID: 068151 Name: POINT PERPENDICULAR AWS Lat: -35.09 Lon: 150.80 Height: 85.0 m
Data from the previous 72 hours. | See also: Recent months at Point Perpendicular
Date/Time
EST
Temp

°C
Wind Pressure Rain
since 9am
mm
Weather Cloud Vis
km
Sea
Height
m
Swell
Dir
 
Speed
knots
Gust
knots
hPa Trend Height
m
Period
s
Dir
17/12:30am 17.3 SW 7 12 1018.7 - 0.0 - - - - - - -
17/12:00am 17.1 SW 7 11 1018.6 - 0.0 - - - - - - -
 
Date/Time
EST
Temp

°C
Wind Pressure Rain
since 9am
mm
Weather Cloud Vis
km
Sea
Height
m
Swell
Dir
 
Speed
knots
Gust
knots
hPa Trend Height
m
Period
s
Dir
16/11:30pm 17.1 WSW 6 11 1018.9 - 0.0 - - - - - - -
16/11:00pm 17.3 WSW 5 8 1018.9 - 0.0 - - - - - - -
16/10:30pm 17.6 WSW 6 9 1019.2 - 0.0 - - - - - - -
16/10:00pm 18.9 WSW 5 6 1019.1 - 0.0 - - - - - - -
16/09:30pm 18.8 SW 7 12 1019.5 - 0.0 - - - - - - -
16/09:00pm 19.3 SSW 7 13 1018.9 - 0.0 - - - - - - -
16/08:30pm 19.3 SSW 7 13 1018.9 - 0.0 - - - - - - -
16/08:00pm 19.4 SSW 7 12 1018.6 - 0.0 - - - - - - -
16/07:30pm 19.3 S 7 13 1018.6 - 0.0 - - - - - - -
16/07:00pm 19.4 S 7 15 1018.3 - 0.0 - - - - - - -
16/06:30pm 19.3 S 8 13 1018.3 - 0.0 - - - - - - -
16/06:00pm 19.2 S 9 16 1017.9 - 0.0 - - - - - - -
16/05:30pm 19.2 S 9 16 1017.8 - 0.0 - - - - - - -
16/05:00pm 19.2 S 10 15 1017.5 - 0.0 - - - - - - -
16/04:30pm 19.2 S 11 18 1017.5 - 0.0 - - - - - - -
16/04:00pm 19.2 S 12 21 1017.3 - 0.0 - - - - - - -
16/03:30pm 19.2 S 12 18 1017.6 - 0.0 - - - - - - -
16/03:00pm 19.2 S 13 21 1017.4 - 0.0 - - - - - - -
16/02:30pm 19.1 SSW 14 21 1017.7 - 0.0 - - - - - - -
16/02:00pm 19.2 SSW 13 22 1017.5 - 0.0 - - - - - - -
16/01:30pm 19.1 S 13 21 1017.6 - 0.0 - - - - - - -
16/01:00pm 18.9 SSW 14 21 1017.7 - 0.0 - - - - - - -
16/12:30pm 18.6 SSW 15 22 1018.4 - 0.0 - - - - - - -
16/12:00pm 18.2 SSW 15 21 1018.7 - 0.0 - - - - - - -
16/11:30am 18.5 SSW 16 23 1018.9 - 0.0 - - - - - - -
16/11:00am 18.0 SSW 15 23 1019.2 - 0.0 - - - - - - -
16/10:30am 17.7 SSW 12 19 1019.8 - 0.0 - - - - - - -
16/10:00am 17.6 SSW 13 23 1019.5 - 0.0 - - - - - - -
16/09:30am 17.4 SSW 14 21 1019.7 - 0.0 - - - - - - -
16/09:00am 17.0 SSW 13 21 1019.7 - 14.2 - - - - - - -
16/08:30am 16.8 SSW 12 17 1020.0 - 14.2 - - - - - - -
16/08:00am 16.5 SW 14 21 1019.7 - 14.2 - - - - - - -
16/07:30am 16.4 SW 11 16 1019.4 - 14.2 - - - - - - -
16/07:00am 16.4 SW 12 18 1018.8 - 14.2 - - - - - - -
16/06:30am 16.4 SW 11 18 1018.7 - 14.2 - - - - - - -
16/06:00am 16.6 SW 12 19 1018.4 - 14.2 - - - - - - -
16/05:30am 16.6 SW 10 15 1018.7 - 14.2 - - - - - - -
16/05:00am 16.8 SW 7 14 1018.6 - 14.2 - - - - - - -
16/04:30am 16.9 S 11 18 1018.5 - 14.2 - - - - - - -
16/04:00am 16.5 S 13 22 1018.5 - 13.0 - - - - - - -
16/03:31am 17.6 SSW 15 25 1018.1 - 12.6 - - - - - - -
16/03:30am 17.6 SSW 15 23 1018.1 - 12.6 - - - - - - -
16/03:00am 17.7 SSW 15 23 1018.0 - 12.6 - - - - - - -
16/02:39am 17.5 S 15 25 1018.5 - 12.6 - - - - - - -
16/02:30am 17.7 S 12 18 1018.2 - 12.6 - - - - - - -
16/02:00am 17.6 S 15 25 1018.7 - 12.6 - - - - - - -
16/01:53am 17.5 S 15 25 1018.8 - 12.6 - - - - - - -
16/01:30am 17.2 SSW 13 21 1019.4 - 12.6 - - - - - - -
16/01:00am 16.8 SSW 13 19 1019.5 - 12.6 - - - - - - -
16/12:30am 16.7 SSW 14 24 1020.2 - 12.6 - - - - - - -
16/12:00am 16.7 SSW 13 21 1019.9 - 12.6 - - - - - - -
 
Date/Time
EST
Temp

°C
Wind Pressure Rain
since 9am
mm
Weather Cloud Vis
km
Sea
Height
m
Swell
Dir
 
Speed
knots
Gust
knots
hPa Trend Height
m
Period
s
Dir
15/11:30pm 17.1 SSW 14 19 1020.4 - 12.6 - - - - - - -
15/11:00pm 17.4 SSW 13 19 1020.0 - 12.6 - - - - - - -
15/10:36pm 18.1 SSW 15 25 1020.4 - 12.6 - - - - - - -
15/10:30pm 19.2 SSW 16 25 1019.7 - 12.6 - - - - - - -
15/10:23pm 19.1 SSW 15 25 1019.7 - 12.6 - - - - - - -
15/10:00pm 18.2 SSW 16 25 1019.6 - 12.6 - - - - - - -
15/09:30pm 19.0 S 16 26 1019.9 - 12.6 - - - - - - -
15/09:06pm 19.0 S 15 26 1019.9 - 12.6 - - - - - - -
15/09:00pm 19.1 S 15 23 1019.5 - 12.6 - - - - - - -
15/08:30pm 19.2 S 16 28 1019.4 - 12.6 - - - - - - -
15/08:01pm 19.1 S 15 27 1019.4 - 12.6 - - - - - - -
15/08:00pm 19.1 S 15 24 1019.1 - 12.6 - - - - - - -
15/07:30pm 19.2 S 15 27 1019.2 - 12.6 - - - - - - -
15/07:21pm 19.2 S 15 25 1019.3 - 12.6 - - - - - - -
15/07:00pm 19.2 S 15 24 1019.4 - 12.6 - - - - - - -
15/06:30pm 19.2 S 13 22 1019.3 - 12.6 - - - - - - -
15/06:00pm 18.7 SSE 11 16 1018.8 - 12.6 - - - - - - -
15/05:30pm 16.5 SSE 12 21 1019.6 - 11.8 - - - - - - -
15/05:00pm 16.4 S 16 24 1019.1 - 8.8 - - - - - - -
15/04:31pm 16.9 SSW 15 25 1019.4 - 4.6 - - - - - - -
15/04:30pm 17.0 SSW 14 22 1019.4 - 4.4 - - - - - - -
15/04:00pm 17.5 SSW 13 16 1018.6 - 4.2 - - - - - - -
15/03:33pm 17.2 SSE 15 25 1019.2 - 4.2 - - - - - - -
15/03:30pm 17.0 SSE 16 25 1019.0 - 4.2 - - - - - - -
15/03:15pm 17.6 S 15 25 1018.8 - 4.2 - - - - - - -
15/03:00pm 17.5 S 11 21 1018.8 - 4.2 - - - - - - -
15/02:30pm 17.2 S 10 18 1019.3 - 4.0 - - - - - - -
15/02:00pm 16.6 S 13 19 1018.9 - 4.0 - - - - - - -
15/01:44pm 17.3 S 15 25 1018.5 - 4.0 - - - - - - -
15/01:30pm 17.7 S 14 22 1018.7 - 4.0 - - - - - - -
15/01:00pm 16.6 S 14 24 1018.9 - 3.0 - - - - - - -
15/12:30pm 17.9 SSE 15 22 1019.2 - 0.0 - - - - - - -
15/12:11pm 19.1 SSW 15 25 1019.3 - 0.0 - - - - - - -
15/12:00pm 18.8 SSW 17 24 1019.1 - 0.0 - - - - - - -
15/11:38am 18.9 SSW 15 25 1019.5 - 0.0 - - - - - - -
15/11:30am 18.7 SSW 14 23 1019.5 - 0.0 - - - - - - -
15/11:00am 18.2 SSW 14 22 1019.9 - 0.0 - - - - - - -
15/10:30am 18.3 SSW 14 19 1020.3 - 0.0 - - - - - - -
15/10:00am 17.9 SSW 13 19 1020.5 - 0.0 - - - - - - -
15/09:30am 17.9 SW 13 18 1020.8 - 0.0 - - - - - - -
15/09:00am 17.5 SW 10 15 1020.8 - 18.8 - - - - - - -
15/08:30am 17.2 SW 9 16 1020.9 - 18.8 - - - - - - -
15/08:00am 17.2 SW 9 14 1020.4 - 18.8 - - - - - - -
15/07:30am 17.1 SW 8 12 1020.4 - 18.8 - - - - - - -
15/07:00am 16.5 SW 11 16 1020.3 - 18.8 - - - - - - -
15/06:30am 16.5 SW 9 13 1020.3 - 18.8 - - - - - - -
15/06:00am 16.6 SW 9 13 1019.9 - 18.8 - - - - - - -
15/05:30am 16.7 SW 9 13 1020.1 - 18.8 - - - - - - -
15/05:00am 16.8 SW 9 14 1019.9 - 18.8 - - - - - - -
15/04:30am 16.8 SW 8 13 1020.0 - 18.8 - - - - - - -
15/04:00am 16.9 SW 10 16 1019.7 - 18.8 - - - - - - -
15/03:30am 16.9 SW 11 16 1019.9 - 18.8 - - - - - - -
15/03:00am 17.0 SW 11 17 1019.8 - 18.8 - - - - - - -
15/02:30am 17.1 SW 9 14 1020.1 - 18.8 - - - - - - -
15/02:00am 17.2 SW 7 11 1020.0 - 18.8 - - - - - - -
15/01:30am 17.0 SSW 11 17 1020.3 - 18.8 - - - - - - -
15/01:00am 17.0 SSW 10 15 1020.2 - 18.8 - - - - - - -
15/12:30am 17.6 SSW 10 16 1020.3 - 18.8 - - - - - - -
15/12:00am 17.2 SW 10 15 1020.4 - 18.8 - - - - - - -
 
Date/Time
EST
Temp

°C
Wind Pressure Rain
since 9am
mm
Weather Cloud Vis
km
Sea
Height
m
Swell
Dir
 
Speed
knots
Gust
knots
hPa Trend Height
m
Period
s
Dir
14/11:30pm 17.3 SW 9 16 1020.7 - 18.8 - - - - - - -
14/11:00pm 17.4 SSW 7 12 1020.6 - 18.8 - - - - - - -
14/10:30pm 19.4 SSW 7 12 1020.8 - 18.8 - - - - - - -
14/10:00pm 19.4 S 9 14 1020.7 - 18.8 - - - - - - -
14/09:30pm 19.3 S 8 13 1020.6 - 18.8 - - - - - - -
14/09:00pm 19.2 S 11 16 1020.3 - 18.8 - - - - - - -
14/08:30pm 19.3 S 11 19 1020.5 - 18.8 - - - - - - -
14/08:00pm 19.3 S 10 16 1020.3 - 18.8 - - - - - - -
14/07:30pm 19.1 S 11 19 1020.3 - 18.8 - - - - - - -
14/07:00pm 19.2 S 12 19 1019.9 - 18.8 - - - - - - -
14/06:30pm 19.2 S 13 21 1019.9 - 18.8 - - - - - - -
14/06:00pm 19.2 S 13 23 1019.2 - 18.8 - - - - - - -
14/05:30pm 19.1 S 12 18 1019.1 - 18.8 - - - - - - -
14/05:00pm 19.0 S 14 22 1018.6 - 18.8 - - - - - - -
14/04:30pm 18.8 S 13 19 1018.6 - 18.8 - - - - - - -
14/04:00pm 18.0 SSW 13 18 1018.4 - 18.8 - - - - - - -
14/03:30pm 17.0 SSE 14 21 1018.9 - 18.2 - - - - - - -
14/03:00pm 17.5 S 13 19 1018.9 - 17.2 - - - - - - -
14/02:30pm 18.2 SSW 15 21 1018.3 - 17.2 - - - - - - -
14/02:00pm 19.0 S 11 18 1018.0 - 17.2 - - - - - - -
14/01:30pm 17.1 SSW 12 18 1019.4 - 17.2 - - - - - - -
14/01:00pm 16.8 SSW 15 26 1019.0 - 17.2 - - - - - - -
14/12:59pm 16.9 SSW 15 26 1019.1 - 17.2 - - - - - - -
14/12:30pm 16.6 SSW 12 22 1019.8 - 17.2 - - - - - - -
14/12:15pm 16.3 SSW 15 25 1019.7 - 16.8 - - - - - - -
14/12:00pm 16.5 SSW 12 21 1019.6 - 16.8 Recent precip. - - - - - -
14/11:30am 16.5 SW 6 11 1020.4 - 16.6 - - - - - - -
14/11:00am 15.7 SSW 10 15 1020.6 - 12.0 - - - - - - -
14/10:30am 16.0 SSW 13 19 1020.9 - 11.8 - - - - - - -
14/10:00am 15.5 S 7 12 1020.2 - 9.2 - - - - - - -
14/09:30am 15.2 SSW 11 19 1020.8 - 3.6 - - - - - - -
14/09:00am 15.3 SW 13 16 1020.4 - 6.0 Rain - - - - - -
14/08:30am 15.4 SSW 15 23 1019.9 - 4.2 - - - - - - -
14/08:00am 14.8 SSW 9 22 1019.8 - 3.4 - - - - - - -
14/07:35am 15.1 S 16 28 1019.2 - 2.4 - - - - - - -
14/07:30am 15.3 S 15 19 1018.9 - 2.0 - - - - - - -
14/07:00am 16.3 SW 13 19 1019.3 - 1.2 - - - - - - -
14/06:30am 16.5 SSW 13 18 1018.9 - 1.2 - - - - - - -
14/06:00am 16.4 SSW 11 21 1018.9 - 1.2 - - - - - - -
14/05:30am 16.3 SW 12 21 1019.1 - 1.2 - - - - - - -
14/05:00am 16.2 SW 12 18 1018.4 - 1.2 - - - - - - -
14/04:30am 16.2 SW 11 21 1018.7 - 1.2 - - - - - - -
14/04:00am 16.1 SW 13 21 1018.2 - 1.2 - - - - - - -
14/03:30am 16.3 SW 12 19 1018.3 - 1.2 - - - - - - -
14/03:00am 16.4 SW 13 21 1018.3 - 1.2 - - - - - - -
14/02:30am 16.1 SW 12 19 1018.6 - 1.2 - - - - - - -
14/02:00am 16.1 SW 13 18 1018.6 - 1.2 - - - - - - -
14/01:30am 16.3 SW 11 22 1019.2 - 1.2 - - - - - - -
14/01:00am 16.3 SW 12 19 1019.0 - 1.2 - - - - - - -

Other Formats:

Comma delimited format used in spreadsheet applications
http://www.bom.gov.au/fwo/IDN60701/IDN60701.95940.axf

JavaScript Object Notation format (JSON) in row-major order
http://www.bom.gov.au/fwo/IDN60701/IDN60701.95940.json